sensor_id;sensor_type;location;lat;lon;timestamp;P1;durP1;ratioP1;P2;durP2;ratioP2
14100;SDS011;7127;49.372;8.166;2023-04-30T00:00:41;5.43;;;4.70;;
14100;SDS011;7127;49.372;8.166;2023-04-30T00:03:08;5.10;;;4.60;;
14100;SDS011;7127;49.372;8.166;2023-04-30T00:05:35;5.47;;;4.97;;
14100;SDS011;7127;49.372;8.166;2023-04-30T00:08:03;5.20;;;4.70;;
14100;SDS011;7127;49.372;8.166;2023-04-30T00:10:30;4.60;;;4.20;;
14100;SDS011;7127;49.372;8.166;2023-04-30T00:12:57;4.87;;;4.47;;
14100;SDS011;7127;49.372;8.166;2023-04-30T00:15:25;5.80;;;5.23;;
14100;SDS011;7127;49.372;8.166;2023-04-30T00:17:52;7.03;;;5.10;;
14100;SDS011;7127;49.372;8.166;2023-04-30T00:20:19;5.03;;;4.53;;
14100;SDS011;7127;49.372;8.166;2023-04-30T00:22:45;7.07;;;5.13;;
14100;SDS011;7127;49.372;8.166;2023-04-30T00:25:12;5.43;;;4.93;;
14100;SDS011;7127;49.372;8.166;2023-04-30T00:27:40;4.53;;;4.13;;
14100;SDS011;7127;49.372;8.166;2023-04-30T00:30:07;5.40;;;4.90;;
14100;SDS011;7127;49.372;8.166;2023-04-30T00:32:36;6.37;;;4.97;;
14100;SDS011;7127;49.372;8.166;2023-04-30T00:35:03;4.83;;;4.43;;
14100;SDS011;7127;49.372;8.166;2023-04-30T00:37:30;5.37;;;4.87;;
14100;SDS011;7127;49.372;8.166;2023-04-30T00:39:57;5.00;;;4.60;;
14100;SDS011;7127;49.372;8.166;2023-04-30T00:42:23;4.90;;;4.37;;
14100;SDS011;7127;49.372;8.166;2023-04-30T00:44:50;5.20;;;4.63;;
14100;SDS011;7127;49.372;8.166;2023-04-30T00:47:17;5.70;;;4.93;;
14100;SDS011;7127;49.372;8.166;2023-04-30T00:49:45;5.70;;;5.20;;
14100;SDS011;7127;49.372;8.166;2023-04-30T00:52:12;4.87;;;4.37;;
14100;SDS011;7127;49.372;8.166;2023-04-30T00:54:39;5.30;;;4.80;;
14100;SDS011;7127;49.372;8.166;2023-04-30T00:57:06;5.03;;;4.53;;
14100;SDS011;7127;49.372;8.166;2023-04-30T00:59:37;4.80;;;4.30;;
14100;SDS011;7127;49.372;8.166;2023-04-30T01:02:04;4.67;;;4.27;;
14100;SDS011;7127;49.372;8.166;2023-04-30T01:04:31;5.90;;;5.40;;
14100;SDS011;7127;49.372;8.166;2023-04-30T01:07:00;6.00;;;5.40;;
14100;SDS011;7127;49.372;8.166;2023-04-30T01:09:27;5.60;;;4.97;;
14100;SDS011;7127;49.372;8.166;2023-04-30T01:11:56;5.90;;;5.30;;
14100;SDS011;7127;49.372;8.166;2023-04-30T01:14:32;5.70;;;5.13;;
14100;SDS011;7127;49.372;8.166;2023-04-30T01:17:07;5.93;;;4.67;;
14100;SDS011;7127;49.372;8.166;2023-04-30T01:19:40;5.50;;;5.00;;
14100;SDS011;7127;49.372;8.166;2023-04-30T01:22:11;5.33;;;4.80;;
14100;SDS011;7127;49.372;8.166;2023-04-30T01:24:52;5.00;;;4.60;;
14100;SDS011;7127;49.372;8.166;2023-04-30T01:28:02;5.20;;;4.67;;
14100;SDS011;7127;49.372;8.166;2023-04-30T01:30:33;5.90;;;5.27;;
14100;SDS011;7127;49.372;8.166;2023-04-30T01:33:01;5.40;;;4.90;;
14100;SDS011;7127;49.372;8.166;2023-04-30T01:35:33;5.27;;;4.77;;
14100;SDS011;7127;49.372;8.166;2023-04-30T01:38:21;6.73;;;5.83;;
14100;SDS011;7127;49.372;8.166;2023-04-30T01:41:00;5.07;;;4.57;;
14100;SDS011;7127;49.372;8.166;2023-04-30T01:43:38;7.17;;;6.47;;
14100;SDS011;7127;49.372;8.166;2023-04-30T01:46:13;8.47;;;6.93;;
14100;SDS011;7127;49.372;8.166;2023-04-30T01:48:45;7.00;;;6.40;;
14100;SDS011;7127;49.372;8.166;2023-04-30T01:51:21;6.47;;;5.80;;
14100;SDS011;7127;49.372;8.166;2023-04-30T01:53:54;6.77;;;6.17;;
14100;SDS011;7127;49.372;8.166;2023-04-30T01:56:26;6.17;;;5.57;;
14100;SDS011;7127;49.372;8.166;2023-04-30T01:58:57;6.97;;;6.27;;
14100;SDS011;7127;49.372;8.166;2023-04-30T02:01:26;7.40;;;6.80;;
14100;SDS011;7127;49.372;8.166;2023-04-30T02:03:53;7.27;;;6.57;;
14100;SDS011;7127;49.372;8.166;2023-04-30T02:06:20;7.87;;;6.83;;
14100;SDS011;7127;49.372;8.166;2023-04-30T02:08:47;6.70;;;6.10;;
14100;SDS011;7127;49.372;8.166;2023-04-30T02:11:13;7.10;;;6.30;;
14100;SDS011;7127;49.372;8.166;2023-04-30T02:13:40;7.23;;;6.53;;
14100;SDS011;7127;49.372;8.166;2023-04-30T02:16:08;7.30;;;6.60;;
14100;SDS011;7127;49.372;8.166;2023-04-30T02:18:35;7.90;;;7.10;;
14100;SDS011;7127;49.372;8.166;2023-04-30T02:21:03;7.53;;;6.73;;
14100;SDS011;7127;49.372;8.166;2023-04-30T02:23:30;7.83;;;7.03;;
14100;SDS011;7127;49.372;8.166;2023-04-30T02:25:56;7.17;;;6.47;;
14100;SDS011;7127;49.372;8.166;2023-04-30T02:28:23;8.77;;;7.20;;
14100;SDS011;7127;49.372;8.166;2023-04-30T02:30:50;9.80;;;7.30;;
14100;SDS011;7127;49.372;8.166;2023-04-30T02:33:18;6.50;;;5.90;;
14100;SDS011;7127;49.372;8.166;2023-04-30T02:35:45;6.93;;;6.23;;
14100;SDS011;7127;49.372;8.166;2023-04-30T02:38:12;8.63;;;7.73;;
14100;SDS011;7127;49.372;8.166;2023-04-30T02:40:39;8.27;;;7.47;;
14100;SDS011;7127;49.372;8.166;2023-04-30T02:43:06;9.97;;;7.80;;
14100;SDS011;7127;49.372;8.166;2023-04-30T02:45:33;7.77;;;7.07;;
14100;SDS011;7127;49.372;8.166;2023-04-30T02:48:00;7.73;;;6.93;;
14100;SDS011;7127;49.372;8.166;2023-04-30T02:50:28;7.70;;;7.00;;
14100;SDS011;7127;49.372;8.166;2023-04-30T02:52:55;7.67;;;6.97;;
14100;SDS011;7127;49.372;8.166;2023-04-30T02:55:22;6.90;;;6.30;;
14100;SDS011;7127;49.372;8.166;2023-04-30T02:57:49;6.90;;;6.20;;
14100;SDS011;7127;49.372;8.166;2023-04-30T03:00:16;7.40;;;6.70;;
14100;SDS011;7127;49.372;8.166;2023-04-30T03:02:43;7.20;;;6.43;;
14100;SDS011;7127;49.372;8.166;2023-04-30T03:05:10;8.57;;;7.77;;
14100;SDS011;7127;49.372;8.166;2023-04-30T03:07:38;8.77;;;7.93;;
14100;SDS011;7127;49.372;8.166;2023-04-30T03:10:05;7.83;;;7.03;;
14100;SDS011;7127;49.372;8.166;2023-04-30T03:12:33;8.20;;;7.40;;
14100;SDS011;7127;49.372;8.166;2023-04-30T03:15:00;8.50;;;7.60;;
14100;SDS011;7127;49.372;8.166;2023-04-30T03:17:27;7.73;;;6.90;;
14100;SDS011;7127;49.372;8.166;2023-04-30T03:19:54;7.63;;;6.83;;
14100;SDS011;7127;49.372;8.166;2023-04-30T03:22:21;7.70;;;7.00;;
14100;SDS011;7127;49.372;8.166;2023-04-30T03:24:52;7.03;;;5.97;;
14100;SDS011;7127;49.372;8.166;2023-04-30T03:27:19;7.73;;;6.90;;
14100;SDS011;7127;49.372;8.166;2023-04-30T03:29:46;8.17;;;7.37;;
14100;SDS011;7127;49.372;8.166;2023-04-30T03:32:14;7.83;;;7.03;;
14100;SDS011;7127;49.372;8.166;2023-04-30T03:34:40;7.10;;;6.40;;
14100;SDS011;7127;49.372;8.166;2023-04-30T03:37:07;7.40;;;6.70;;
14100;SDS011;7127;49.372;8.166;2023-04-30T03:39:34;7.00;;;6.27;;
14100;SDS011;7127;49.372;8.166;2023-04-30T03:42:03;8.30;;;7.43;;
14100;SDS011;7127;49.372;8.166;2023-04-30T03:44:30;9.20;;;8.30;;
14100;SDS011;7127;49.372;8.166;2023-04-30T03:46:57;8.17;;;7.37;;
14100;SDS011;7127;49.372;8.166;2023-04-30T03:49:24;8.33;;;7.53;;
14100;SDS011;7127;49.372;8.166;2023-04-30T03:51:50;8.47;;;7.67;;
14100;SDS011;7127;49.372;8.166;2023-04-30T03:54:17;8.87;;;8.03;;
14100;SDS011;7127;49.372;8.166;2023-04-30T03:56:45;8.93;;;8.03;;
14100;SDS011;7127;49.372;8.166;2023-04-30T03:59:13;7.33;;;6.70;;
14100;SDS011;7127;49.372;8.166;2023-04-30T04:01:40;9.17;;;8.17;;
14100;SDS011;7127;49.372;8.166;2023-04-30T04:04:07;9.33;;;8.43;;
14100;SDS011;7127;49.372;8.166;2023-04-30T04:06:34;8.07;;;7.27;;
14100;SDS011;7127;49.372;8.166;2023-04-30T04:09:01;10.27;;;9.10;;
14100;SDS011;7127;49.372;8.166;2023-04-30T04:11:30;8.73;;;7.93;;
14100;SDS011;7127;49.372;8.166;2023-04-30T04:13:58;8.27;;;7.47;;
14100;SDS011;7127;49.372;8.166;2023-04-30T04:16:26;9.03;;;8.13;;
14100;SDS011;7127;49.372;8.166;2023-04-30T04:18:53;9.10;;;8.20;;
14100;SDS011;7127;49.372;8.166;2023-04-30T04:21:20;7.90;;;7.20;;
14100;SDS011;7127;49.372;8.166;2023-04-30T04:23:47;8.67;;;7.83;;
14100;SDS011;7127;49.372;8.166;2023-04-30T04:26:14;8.47;;;7.67;;
14100;SDS011;7127;49.372;8.166;2023-04-30T04:28:43;8.10;;;7.30;;
14100;SDS011;7127;49.372;8.166;2023-04-30T04:31:11;8.80;;;8.00;;
14100;SDS011;7127;49.372;8.166;2023-04-30T04:33:40;8.00;;;7.20;;
14100;SDS011;7127;49.372;8.166;2023-04-30T04:36:07;6.57;;;5.97;;
14100;SDS011;7127;49.372;8.166;2023-04-30T04:38:34;7.73;;;6.93;;
14100;SDS011;7127;49.372;8.166;2023-04-30T04:41:01;7.60;;;6.70;;
14100;SDS011;7127;49.372;8.166;2023-04-30T04:43:28;6.77;;;6.10;;
14100;SDS011;7127;49.372;8.166;2023-04-30T04:45:55;7.57;;;6.87;;
14100;SDS011;7127;49.372;8.166;2023-04-30T04:48:22;7.47;;;6.77;;
14100;SDS011;7127;49.372;8.166;2023-04-30T04:50:50;7.40;;;6.67;;
14100;SDS011;7127;49.372;8.166;2023-04-30T04:53:17;6.50;;;5.90;;
14100;SDS011;7127;49.372;8.166;2023-04-30T04:55:44;6.90;;;6.20;;
14100;SDS011;7127;49.372;8.166;2023-04-30T04:58:11;7.27;;;6.60;;
14100;SDS011;7127;49.372;8.166;2023-04-30T05:00:38;7.93;;;7.10;;
14100;SDS011;7127;49.372;8.166;2023-04-30T05:03:05;7.30;;;6.60;;
14100;SDS011;7127;49.372;8.166;2023-04-30T05:05:33;7.97;;;7.17;;
14100;SDS011;7127;49.372;8.166;2023-04-30T05:08:01;6.13;;;5.53;;
14100;SDS011;7127;49.372;8.166;2023-04-30T05:10:28;6.63;;;5.97;;
14100;SDS011;7127;49.372;8.166;2023-04-30T05:12:55;5.07;;;4.57;;
14100;SDS011;7127;49.372;8.166;2023-04-30T05:15:22;7.17;;;5.83;;
14100;SDS011;7127;49.372;8.166;2023-04-30T05:17:49;6.03;;;5.40;;
14100;SDS011;7127;49.372;8.166;2023-04-30T05:20:16;7.70;;;7.00;;
14100;SDS011;7127;49.372;8.166;2023-04-30T05:22:43;6.37;;;5.77;;
14100;SDS011;7127;49.372;8.166;2023-04-30T05:25:12;6.40;;;5.80;;
14100;SDS011;7127;49.372;8.166;2023-04-30T05:27:39;6.83;;;6.20;;
14100;SDS011;7127;49.372;8.166;2023-04-30T05:30:06;6.17;;;5.60;;
14100;SDS011;7127;49.372;8.166;2023-04-30T05:32:34;5.40;;;4.90;;
14100;SDS011;7127;49.372;8.166;2023-04-30T05:35:01;6.37;;;5.77;;
14100;SDS011;7127;49.372;8.166;2023-04-30T05:37:29;6.10;;;5.30;;
14100;SDS011;7127;49.372;8.166;2023-04-30T05:39:56;5.40;;;4.90;;
14100;SDS011;7127;49.372;8.166;2023-04-30T05:42:24;5.20;;;4.70;;
14100;SDS011;7127;49.372;8.166;2023-04-30T05:44:51;4.83;;;4.43;;
14100;SDS011;7127;49.372;8.166;2023-04-30T05:47:19;5.73;;;5.13;;
14100;SDS011;7127;49.372;8.166;2023-04-30T05:49:46;6.27;;;5.67;;
14100;SDS011;7127;49.372;8.166;2023-04-30T05:52:13;5.87;;;4.97;;
14100;SDS011;7127;49.372;8.166;2023-04-30T05:54:41;6.90;;;6.30;;
14100;SDS011;7127;49.372;8.166;2023-04-30T05:57:08;5.77;;;5.27;;
14100;SDS011;7127;49.372;8.166;2023-04-30T05:59:37;5.30;;;4.77;;
14100;SDS011;7127;49.372;8.166;2023-04-30T06:02:05;5.93;;;5.37;;
14100;SDS011;7127;49.372;8.166;2023-04-30T06:04:32;6.33;;;5.70;;
14100;SDS011;7127;49.372;8.166;2023-04-30T06:07:00;5.73;;;5.17;;
14100;SDS011;7127;49.372;8.166;2023-04-30T06:09:27;5.00;;;4.60;;
14100;SDS011;7127;49.372;8.166;2023-04-30T06:11:54;4.97;;;4.47;;
14100;SDS011;7127;49.372;8.166;2023-04-30T06:14:21;5.33;;;4.83;;
14100;SDS011;7127;49.372;8.166;2023-04-30T06:16:50;5.23;;;4.73;;
14100;SDS011;7127;49.372;8.166;2023-04-30T06:19:17;7.33;;;6.63;;
14100;SDS011;7127;49.372;8.166;2023-04-30T06:21:44;5.93;;;5.43;;
14100;SDS011;7127;49.372;8.166;2023-04-30T06:24:11;7.60;;;6.80;;
14100;SDS011;7127;49.372;8.166;2023-04-30T06:26:39;7.00;;;6.37;;
14100;SDS011;7127;49.372;8.166;2023-04-30T06:29:06;7.20;;;6.50;;
14100;SDS011;7127;49.372;8.166;2023-04-30T06:31:33;5.97;;;5.27;;
14100;SDS011;7127;49.372;8.166;2023-04-30T06:34:02;5.33;;;4.83;;
14100;SDS011;7127;49.372;8.166;2023-04-30T06:36:35;5.93;;;5.13;;
14100;SDS011;7127;49.372;8.166;2023-04-30T06:39:05;5.83;;;5.33;;
14100;SDS011;7127;49.372;8.166;2023-04-30T06:41:40;5.80;;;5.13;;
14100;SDS011;7127;49.372;8.166;2023-04-30T06:44:08;5.13;;;4.63;;
14100;SDS011;7127;49.372;8.166;2023-04-30T06:46:35;6.00;;;5.40;;
14100;SDS011;7127;49.372;8.166;2023-04-30T06:49:03;7.03;;;6.40;;
14100;SDS011;7127;49.372;8.166;2023-04-30T06:51:31;7.00;;;6.30;;
14100;SDS011;7127;49.372;8.166;2023-04-30T06:53:58;6.30;;;5.70;;
14100;SDS011;7127;49.372;8.166;2023-04-30T06:56:25;6.40;;;5.83;;
14100;SDS011;7127;49.372;8.166;2023-04-30T06:58:52;5.20;;;4.70;;
14100;SDS011;7127;49.372;8.166;2023-04-30T07:01:20;6.27;;;5.67;;
14100;SDS011;7127;49.372;8.166;2023-04-30T07:03:47;6.57;;;5.87;;
14100;SDS011;7127;49.372;8.166;2023-04-30T07:06:16;6.83;;;6.20;;
14100;SDS011;7127;49.372;8.166;2023-04-30T07:08:43;5.57;;;5.07;;
14100;SDS011;7127;49.372;8.166;2023-04-30T07:11:10;6.93;;;6.23;;
14100;SDS011;7127;49.372;8.166;2023-04-30T07:13:37;6.40;;;5.80;;
14100;SDS011;7127;49.372;8.166;2023-04-30T07:16:05;5.77;;;4.93;;
14100;SDS011;7127;49.372;8.166;2023-04-30T07:18:33;6.70;;;6.10;;
14100;SDS011;7127;49.372;8.166;2023-04-30T07:21:00;5.90;;;5.30;;
14100;SDS011;7127;49.372;8.166;2023-04-30T07:23:29;6.13;;;5.50;;
14100;SDS011;7127;49.372;8.166;2023-04-30T07:25:56;5.30;;;4.80;;
14100;SDS011;7127;49.372;8.166;2023-04-30T07:28:23;5.87;;;5.30;;
14100;SDS011;7127;49.372;8.166;2023-04-30T07:30:50;7.70;;;5.20;;
14100;SDS011;7127;49.372;8.166;2023-04-30T07:33:17;4.87;;;4.43;;
14100;SDS011;7127;49.372;8.166;2023-04-30T07:35:44;5.27;;;4.60;;
14100;SDS011;7127;49.372;8.166;2023-04-30T07:38:11;5.10;;;4.60;;
14100;SDS011;7127;49.372;8.166;2023-04-30T07:40:39;5.23;;;4.73;;
14100;SDS011;7127;49.372;8.166;2023-04-30T07:43:06;4.57;;;4.17;;
14100;SDS011;7127;49.372;8.166;2023-04-30T07:45:33;4.83;;;4.33;;
14100;SDS011;7127;49.372;8.166;2023-04-30T07:48:01;4.97;;;4.13;;
14100;SDS011;7127;49.372;8.166;2023-04-30T07:50:30;3.80;;;3.50;;
14100;SDS011;7127;49.372;8.166;2023-04-30T07:52:58;4.77;;;4.20;;
14100;SDS011;7127;49.372;8.166;2023-04-30T07:55:25;4.27;;;3.90;;
14100;SDS011;7127;49.372;8.166;2023-04-30T07:57:54;3.90;;;3.60;;
14100;SDS011;7127;49.372;8.166;2023-04-30T08:00:21;4.20;;;3.80;;
14100;SDS011;7127;49.372;8.166;2023-04-30T08:02:50;5.63;;;4.90;;
14100;SDS011;7127;49.372;8.166;2023-04-30T08:05:17;4.53;;;4.13;;
14100;SDS011;7127;49.372;8.166;2023-04-30T08:07:44;5.83;;;5.23;;
14100;SDS011;7127;49.372;8.166;2023-04-30T08:10:11;4.73;;;4.33;;
14100;SDS011;7127;49.372;8.166;2023-04-30T08:12:38;4.30;;;3.90;;
14100;SDS011;7127;49.372;8.166;2023-04-30T08:15:06;4.33;;;3.93;;
14100;SDS011;7127;49.372;8.166;2023-04-30T08:17:34;3.93;;;3.63;;
14100;SDS011;7127;49.372;8.166;2023-04-30T08:20:02;4.07;;;3.67;;
14100;SDS011;7127;49.372;8.166;2023-04-30T08:22:29;3.53;;;3.23;;
14100;SDS011;7127;49.372;8.166;2023-04-30T08:24:57;3.37;;;3.03;;
14100;SDS011;7127;49.372;8.166;2023-04-30T08:27:26;3.93;;;3.57;;
14100;SDS011;7127;49.372;8.166;2023-04-30T08:29:53;3.10;;;2.80;;
14100;SDS011;7127;49.372;8.166;2023-04-30T08:32:21;4.20;;;3.80;;
14100;SDS011;7127;49.372;8.166;2023-04-30T08:34:48;7.20;;;4.07;;
14100;SDS011;7127;49.372;8.166;2023-04-30T08:37:15;4.60;;;4.20;;
14100;SDS011;7127;49.372;8.166;2023-04-30T08:39:42;4.37;;;3.97;;
14100;SDS011;7127;49.372;8.166;2023-04-30T08:42:09;4.87;;;3.90;;
14100;SDS011;7127;49.372;8.166;2023-04-30T08:44:40;4.27;;;3.87;;
14100;SDS011;7127;49.372;8.166;2023-04-30T08:47:07;3.97;;;3.50;;
14100;SDS011;7127;49.372;8.166;2023-04-30T08:49:40;3.60;;;3.30;;
14100;SDS011;7127;49.372;8.166;2023-04-30T08:52:08;3.53;;;3.23;;
14100;SDS011;7127;49.372;8.166;2023-04-30T08:54:36;3.37;;;3.07;;
14100;SDS011;7127;49.372;8.166;2023-04-30T08:57:03;3.20;;;2.90;;
14100;SDS011;7127;49.372;8.166;2023-04-30T08:59:31;3.40;;;3.00;;
14100;SDS011;7127;49.372;8.166;2023-04-30T09:01:59;2.60;;;2.40;;
14100;SDS011;7127;49.372;8.166;2023-04-30T09:04:26;3.53;;;2.10;;
14100;SDS011;7127;49.372;8.166;2023-04-30T09:06:54;2.40;;;2.20;;
14100;SDS011;7127;49.372;8.166;2023-04-30T09:09:26;2.90;;;2.13;;
14100;SDS011;7127;49.372;8.166;2023-04-30T09:12:05;1.80;;;1.50;;
14100;SDS011;7127;49.372;8.166;2023-04-30T09:14:37;1.67;;;1.57;;
14100;SDS011;7127;49.372;8.166;2023-04-30T09:17:05;1.40;;;1.30;;
14100;SDS011;7127;49.372;8.166;2023-04-30T09:19:33;1.63;;;1.40;;
14100;SDS011;7127;49.372;8.166;2023-04-30T09:24:46;1.53;;;1.40;;
14100;SDS011;7127;49.372;8.166;2023-04-30T09:27:15;1.90;;;1.70;;
14100;SDS011;7127;49.372;8.166;2023-04-30T09:29:43;2.63;;;1.90;;
14100;SDS011;7127;49.372;8.166;2023-04-30T09:32:10;1.77;;;1.67;;
14100;SDS011;7127;49.372;8.166;2023-04-30T09:34:38;1.90;;;1.80;;
14100;SDS011;7127;49.372;8.166;2023-04-30T09:37:05;2.27;;;1.80;;
14100;SDS011;7127;49.372;8.166;2023-04-30T09:39:34;2.13;;;1.83;;
14100;SDS011;7127;49.372;8.166;2023-04-30T09:42:12;2.10;;;1.53;;
14100;SDS011;7127;49.372;8.166;2023-04-30T09:44:39;3.30;;;1.80;;
14100;SDS011;7127;49.372;8.166;2023-04-30T09:47:09;1.80;;;1.70;;
14100;SDS011;7127;49.372;8.166;2023-04-30T09:49:39;1.73;;;1.63;;
14100;SDS011;7127;49.372;8.166;2023-04-30T09:52:07;1.60;;;1.50;;
14100;SDS011;7127;49.372;8.166;2023-04-30T09:54:35;1.57;;;1.47;;
14100;SDS011;7127;49.372;8.166;2023-04-30T09:57:03;1.60;;;1.50;;
14100;SDS011;7127;49.372;8.166;2023-04-30T09:59:34;3.10;;;1.70;;
14100;SDS011;7127;49.372;8.166;2023-04-30T10:02:03;1.60;;;1.50;;
14100;SDS011;7127;49.372;8.166;2023-04-30T10:04:34;1.53;;;1.43;;
14100;SDS011;7127;49.372;8.166;2023-04-30T10:07:03;1.63;;;1.50;;
14100;SDS011;7127;49.372;8.166;2023-04-30T10:09:38;1.40;;;1.30;;
14100;SDS011;7127;49.372;8.166;2023-04-30T10:12:07;1.47;;;1.37;;
14100;SDS011;7127;49.372;8.166;2023-04-30T10:14:44;1.70;;;1.50;;
14100;SDS011;7127;49.372;8.166;2023-04-30T10:17:17;1.53;;;1.43;;
14100;SDS011;7127;49.372;8.166;2023-04-30T10:19:45;1.30;;;1.10;;
14100;SDS011;7127;49.372;8.166;2023-04-30T10:22:15;1.40;;;1.30;;
14100;SDS011;7127;49.372;8.166;2023-04-30T10:24:43;1.60;;;1.50;;
14100;SDS011;7127;49.372;8.166;2023-04-30T10:27:12;2.80;;;1.60;;
14100;SDS011;7127;49.372;8.166;2023-04-30T10:29:39;1.50;;;1.27;;
14100;SDS011;7127;49.372;8.166;2023-04-30T10:32:06;1.60;;;1.20;;
14100;SDS011;7127;49.372;8.166;2023-04-30T10:34:36;1.63;;;1.40;;
14100;SDS011;7127;49.372;8.166;2023-04-30T10:37:12;1.73;;;1.40;;
14100;SDS011;7127;49.372;8.166;2023-04-30T10:39:50;1.23;;;1.13;;
14100;SDS011;7127;49.372;8.166;2023-04-30T10:42:17;1.23;;;1.13;;
14100;SDS011;7127;49.372;8.166;2023-04-30T10:44:44;1.20;;;1.20;;
14100;SDS011;7127;49.372;8.166;2023-04-30T10:47:12;1.50;;;1.17;;
14100;SDS011;7127;49.372;8.166;2023-04-30T10:49:44;1.30;;;1.10;;
14100;SDS011;7127;49.372;8.166;2023-04-30T10:52:12;2.10;;;1.20;;
14100;SDS011;7127;49.372;8.166;2023-04-30T10:54:39;2.07;;;1.40;;
14100;SDS011;7127;49.372;8.166;2023-04-30T10:57:17;1.40;;;1.30;;
14100;SDS011;7127;49.372;8.166;2023-04-30T10:59:50;2.13;;;1.40;;
14100;SDS011;7127;49.372;8.166;2023-04-30T11:02:18;1.63;;;1.20;;
14100;SDS011;7127;49.372;8.166;2023-04-30T11:07:35;1.30;;;1.20;;
14100;SDS011;7127;49.372;8.166;2023-04-30T11:10:02;1.20;;;1.10;;
14100;SDS011;7127;49.372;8.166;2023-04-30T11:12:34;1.33;;;1.20;;
14100;SDS011;7127;49.372;8.166;2023-04-30T11:15:06;2.43;;;1.27;;
14100;SDS011;7127;49.372;8.166;2023-04-30T11:17:38;1.20;;;1.10;;
14100;SDS011;7127;49.372;8.166;2023-04-30T11:20:06;2.30;;;1.10;;
14100;SDS011;7127;49.372;8.166;2023-04-30T11:22:37;2.53;;;1.40;;
14100;SDS011;7127;49.372;8.166;2023-04-30T11:25:04;1.53;;;1.20;;
14100;SDS011;7127;49.372;8.166;2023-04-30T11:27:35;1.27;;;1.00;;
14100;SDS011;7127;49.372;8.166;2023-04-30T11:30:08;1.57;;;1.20;;
14100;SDS011;7127;49.372;8.166;2023-04-30T11:32:38;1.53;;;1.00;;
14100;SDS011;7127;49.372;8.166;2023-04-30T11:35:05;1.60;;;1.20;;
14100;SDS011;7127;49.372;8.166;2023-04-30T11:37:33;1.13;;;1.03;;
14100;SDS011;7127;49.372;8.166;2023-04-30T11:40:02;1.10;;;1.00;;
14100;SDS011;7127;49.372;8.166;2023-04-30T11:42:31;1.50;;;1.20;;
14100;SDS011;7127;49.372;8.166;2023-04-30T11:45:05;1.07;;;0.97;;
14100;SDS011;7127;49.372;8.166;2023-04-30T11:47:40;1.67;;;1.20;;
14100;SDS011;7127;49.372;8.166;2023-04-30T11:50:08;1.60;;;1.03;;
14100;SDS011;7127;49.372;8.166;2023-04-30T11:52:37;1.40;;;1.27;;
14100;SDS011;7127;49.372;8.166;2023-04-30T11:55:04;1.00;;;1.00;;
14100;SDS011;7127;49.372;8.166;2023-04-30T11:57:33;1.27;;;1.10;;
14100;SDS011;7127;49.372;8.166;2023-04-30T12:00:11;1.20;;;1.10;;
14100;SDS011;7127;49.372;8.166;2023-04-30T12:02:39;1.20;;;1.10;;
14100;SDS011;7127;49.372;8.166;2023-04-30T12:05:14;1.30;;;1.20;;
14100;SDS011;7127;49.372;8.166;2023-04-30T12:07:45;1.33;;;1.10;;
14100;SDS011;7127;49.372;8.166;2023-04-30T12:10:13;1.17;;;1.07;;
14100;SDS011;7127;49.372;8.166;2023-04-30T12:12:41;1.50;;;1.17;;
14100;SDS011;7127;49.372;8.166;2023-04-30T12:15:12;1.20;;;1.10;;
14100;SDS011;7127;49.372;8.166;2023-04-30T12:17:39;1.10;;;0.97;;
14100;SDS011;7127;49.372;8.166;2023-04-30T12:20:07;1.80;;;1.00;;
14100;SDS011;7127;49.372;8.166;2023-04-30T12:22:35;1.20;;;1.10;;
14100;SDS011;7127;49.372;8.166;2023-04-30T12:25:04;1.37;;;1.27;;
14100;SDS011;7127;49.372;8.166;2023-04-30T12:27:34;1.20;;;1.10;;
14100;SDS011;7127;49.372;8.166;2023-04-30T12:30:02;1.17;;;1.07;;
14100;SDS011;7127;49.372;8.166;2023-04-30T12:32:37;0.67;;;0.67;;
14100;SDS011;7127;49.372;8.166;2023-04-30T12:35:05;1.20;;;1.10;;
14100;SDS011;7127;49.372;8.166;2023-04-30T12:37:32;3.87;;;1.10;;
14100;SDS011;7127;49.372;8.166;2023-04-30T12:39:59;1.20;;;1.10;;
14100;SDS011;7127;49.372;8.166;2023-04-30T12:42:30;1.40;;;1.10;;
14100;SDS011;7127;49.372;8.166;2023-04-30T12:44:58;2.37;;;1.17;;
14100;SDS011;7127;49.372;8.166;2023-04-30T12:47:25;0.80;;;0.80;;
14100;SDS011;7127;49.372;8.166;2023-04-30T12:49:53;0.80;;;0.80;;
14100;SDS011;7127;49.372;8.166;2023-04-30T12:52:22;1.37;;;1.00;;
14100;SDS011;7127;49.372;8.166;2023-04-30T12:54:50;2.13;;;0.80;;
14100;SDS011;7127;49.372;8.166;2023-04-30T12:57:18;1.10;;;1.00;;
14100;SDS011;7127;49.372;8.166;2023-04-30T12:59:55;1.00;;;0.90;;
14100;SDS011;7127;49.372;8.166;2023-04-30T13:02:24;1.43;;;1.00;;
14100;SDS011;7127;49.372;8.166;2023-04-30T13:04:53;0.97;;;0.90;;
14100;SDS011;7127;49.372;8.166;2023-04-30T13:07:20;1.10;;;1.00;;
14100;SDS011;7127;49.372;8.166;2023-04-30T13:09:47;1.20;;;1.10;;
14100;SDS011;7127;49.372;8.166;2023-04-30T13:12:14;2.10;;;1.00;;
14100;SDS011;7127;49.372;8.166;2023-04-30T13:14:41;1.37;;;0.90;;
14100;SDS011;7127;49.372;8.166;2023-04-30T13:17:08;0.90;;;0.90;;
14100;SDS011;7127;49.372;8.166;2023-04-30T13:19:38;0.90;;;0.90;;
14100;SDS011;7127;49.372;8.166;2023-04-30T13:22:07;1.30;;;1.00;;
14100;SDS011;7127;49.372;8.166;2023-04-30T13:24:34;1.00;;;0.90;;
14100;SDS011;7127;49.372;8.166;2023-04-30T13:27:01;1.00;;;1.00;;
14100;SDS011;7127;49.372;8.166;2023-04-30T13:29:28;1.30;;;0.90;;
14100;SDS011;7127;49.372;8.166;2023-04-30T13:31:55;0.77;;;0.77;;
14100;SDS011;7127;49.372;8.166;2023-04-30T13:34:23;0.90;;;0.90;;
14100;SDS011;7127;49.372;8.166;2023-04-30T13:36:55;1.27;;;1.10;;
14100;SDS011;7127;49.372;8.166;2023-04-30T13:39:31;0.80;;;0.80;;
14100;SDS011;7127;49.372;8.166;2023-04-30T13:42:02;1.17;;;1.07;;
14100;SDS011;7127;49.372;8.166;2023-04-30T13:44:30;1.30;;;1.07;;
14100;SDS011;7127;49.372;8.166;2023-04-30T13:46:58;0.70;;;0.70;;
14100;SDS011;7127;49.372;8.166;2023-04-30T13:49:25;1.30;;;1.00;;
14100;SDS011;7127;49.372;8.166;2023-04-30T13:51:52;1.40;;;1.30;;
14100;SDS011;7127;49.372;8.166;2023-04-30T13:54:19;1.33;;;0.80;;
14100;SDS011;7127;49.372;8.166;2023-04-30T13:56:47;1.40;;;0.90;;
14100;SDS011;7127;49.372;8.166;2023-04-30T13:59:14;1.83;;;1.20;;
14100;SDS011;7127;49.372;8.166;2023-04-30T14:01:41;0.87;;;0.87;;
14100;SDS011;7127;49.372;8.166;2023-04-30T14:04:08;1.00;;;0.90;;
14100;SDS011;7127;49.372;8.166;2023-04-30T14:06:48;1.13;;;1.00;;
14100;SDS011;7127;49.372;8.166;2023-04-30T14:09:30;0.93;;;0.93;;
14100;SDS011;7127;49.372;8.166;2023-04-30T14:12:38;0.93;;;0.87;;
14100;SDS011;7127;49.372;8.166;2023-04-30T14:15:27;0.83;;;0.73;;
14100;SDS011;7127;49.372;8.166;2023-04-30T14:18:09;1.90;;;1.20;;
14100;SDS011;7127;49.372;8.166;2023-04-30T14:21:24;1.13;;;1.00;;
14100;SDS011;7127;49.372;8.166;2023-04-30T14:27:38;0.70;;;0.70;;
14100;SDS011;7127;49.372;8.166;2023-04-30T14:30:09;1.30;;;0.97;;
14100;SDS011;7127;49.372;8.166;2023-04-30T14:32:37;0.70;;;0.70;;
14100;SDS011;7127;49.372;8.166;2023-04-30T14:35:05;0.67;;;0.67;;
14100;SDS011;7127;49.372;8.166;2023-04-30T14:37:34;1.07;;;0.93;;
14100;SDS011;7127;49.372;8.166;2023-04-30T14:40:01;1.33;;;0.93;;
14100;SDS011;7127;49.372;8.166;2023-04-30T14:42:29;0.90;;;0.90;;
14100;SDS011;7127;49.372;8.166;2023-04-30T14:44:58;0.90;;;0.90;;
14100;SDS011;7127;49.372;8.166;2023-04-30T14:47:26;0.80;;;0.80;;
14100;SDS011;7127;49.372;8.166;2023-04-30T14:49:53;0.87;;;0.87;;
14100;SDS011;7127;49.372;8.166;2023-04-30T14:52:22;0.83;;;0.83;;
14100;SDS011;7127;49.372;8.166;2023-04-30T14:54:49;0.80;;;0.80;;
14100;SDS011;7127;49.372;8.166;2023-04-30T14:57:16;0.87;;;0.80;;
14100;SDS011;7127;49.372;8.166;2023-04-30T14:59:43;0.90;;;0.80;;
14100;SDS011;7127;49.372;8.166;2023-04-30T15:02:12;0.70;;;0.70;;
14100;SDS011;7127;49.372;8.166;2023-04-30T15:04:40;0.83;;;0.83;;
14100;SDS011;7127;49.372;8.166;2023-04-30T15:07:10;0.73;;;0.73;;
14100;SDS011;7127;49.372;8.166;2023-04-30T15:09:37;0.67;;;0.67;;
14100;SDS011;7127;49.372;8.166;2023-04-30T15:12:04;0.70;;;0.70;;
14100;SDS011;7127;49.372;8.166;2023-04-30T15:14:31;0.80;;;0.80;;
14100;SDS011;7127;49.372;8.166;2023-04-30T15:16:58;0.60;;;0.60;;
14100;SDS011;7127;49.372;8.166;2023-04-30T15:19:27;1.20;;;0.70;;